Time;durP1;ratioP1;P1;durP2;ratioP2;P2;SDS_P1;SDS_P2;PMS_P1;PMS_P2;Temp;Humidity;BMP_temperature;BMP_pressure;BME280_temperature;BME280_humidity;BME280_pressure;Samples;Min_cycle;Max_cycle;Signal;HPM_P1;HPM_P2
2024/03/16 00:01:02;;;;;;;2.80;1.33;;;10.30;99.90;;;;;;5043686;28;20433;-83
2024/03/16 00:03:29;;;;;;;2.30;1.20;;;10.30;99.90;;;;;;5041616;28;20484;-82
2024/03/16 00:05:56;;;;;;;0.60;0.57;;;10.30;99.90;;;;;;5041357;28;20440;-83
2024/03/16 00:08:24;;;;;;;2.70;1.07;;;10.40;99.90;;;;;;5039458;28;20523;-82
2024/03/16 00:10:51;;;;;;;0.60;0.60;;;10.30;99.90;;;;;;5039770;28;20819;-82
2024/03/16 00:13:18;;;;;;;1.50;0.83;;;10.30;99.90;;;;;;5038779;28;20429;-82
2024/03/16 00:15:49;;;;;;;2.80;1.30;;;10.30;99.90;;;;;;5037467;28;20807;-82
2024/03/16 00:18:16;;;;;;;3.83;0.80;;;10.30;99.90;;;;;;5037804;28;20450;-82
2024/03/16 00:20:43;;;;;;;4.50;1.03;;;10.40;99.90;;;;;;5038171;28;20812;-81
2024/03/16 00:23:10;;;;;;;0.60;0.50;;;10.40;99.90;;;;;;5037190;28;20444;-82
2024/03/16 00:25:37;;;;;;;0.70;0.50;;;10.30;99.90;;;;;;5037127;28;20434;-81
2024/03/16 00:28:05;;;;;;;0.80;0.80;;;10.30;99.90;;;;;;5036683;28;20485;-83
2024/03/16 00:30:33;;;;;;;0.97;0.87;;;10.20;99.90;;;;;;5037131;28;20487;-82
2024/03/16 00:33:00;;;;;;;2.70;0.93;;;10.20;99.90;;;;;;5036831;28;20528;-82
2024/03/16 00:35:27;;;;;;;0.60;0.50;;;10.20;99.90;;;;;;5036531;28;20965;-82
2024/03/16 00:37:54;;;;;;;1.97;1.13;;;10.20;99.90;;;;;;5036028;28;20484;-81
2024/03/16 00:40:21;;;;;;;1.33;0.60;;;10.20;99.90;;;;;;5036205;28;20433;-82
2024/03/16 00:42:49;;;;;;;0.73;0.70;;;10.20;99.90;;;;;;5036184;28;20466;-82
2024/03/16 00:45:15;;;;;;;0.50;0.40;;;10.30;99.90;;;;;;5036235;28;20544;-82
2024/03/16 00:47:43;;;;;;;1.10;1.00;;;10.30;99.90;;;;;;5035477;28;20991;-83
2024/03/16 00:50:09;;;;;;;2.00;0.70;;;10.30;99.90;;;;;;5036086;28;20524;-82
2024/03/16 00:52:36;;;;;;;0.50;0.50;;;10.30;99.90;;;;;;5035998;28;20453;-82
2024/03/16 00:55:05;;;;;;;0.50;0.40;;;10.30;99.90;;;;;;5035374;28;20430;-82
2024/03/16 00:57:32;;;;;;;0.80;0.60;;;10.40;99.90;;;;;;5035670;28;20449;-82
2024/03/16 00:59:58;;;;;;;1.07;0.80;;;10.40;99.90;;;;;;5035666;28;20441;-83
2024/03/16 01:02:25;;;;;;;0.60;0.60;;;10.40;99.90;;;;;;5035470;28;20512;-83
2024/03/16 01:04:52;;;;;;;0.80;0.50;;;10.40;99.90;;;;;;5035620;28;20481;-83
2024/03/16 01:07:19;;;;;;;1.00;0.63;;;10.40;99.90;;;;;;5035673;28;20874;-83
2024/03/16 01:09:46;;;;;;;0.83;0.80;;;10.40;99.90;;;;;;5036349;28;20437;-83
2024/03/16 01:12:13;;;;;;;0.60;0.50;;;10.40;99.90;;;;;;5023777;28;20434;-82
2024/03/16 01:14:41;;;;;;;0.63;0.63;;;10.40;99.90;;;;;;5039220;28;20437;-82
2024/03/16 01:17:08;;;;;;;0.50;0.50;;;10.40;99.90;;;;;;5039116;28;20458;-82
2024/03/16 01:19:37;;;;;;;0.50;0.40;;;10.40;99.90;;;;;;5040379;28;20440;-83
2024/03/16 01:22:04;;;;;;;0.90;0.50;;;10.40;99.90;;;;;;5039685;28;20832;-83
2024/03/16 01:24:31;;;;;;;2.83;1.27;;;10.40;99.90;;;;;;5040454;28;20477;-82
2024/03/16 01:26:58;;;;;;;0.50;0.40;;;10.50;99.90;;;;;;5043282;28;20440;-83
2024/03/16 01:29:25;;;;;;;0.93;0.93;;;10.40;99.90;;;;;;5041971;28;20434;-82
2024/03/16 01:31:53;;;;;;;1.27;0.87;;;10.40;99.90;;;;;;5038727;28;20808;-82
2024/03/16 01:34:19;;;;;;;0.50;0.50;;;10.50;99.90;;;;;;5043252;28;20433;-82
2024/03/16 01:36:45;;;;;;;0.50;0.50;;;10.50;99.90;;;;;;5043980;28;20429;-83
2024/03/16 01:39:13;;;;;;;0.60;0.60;;;10.50;99.90;;;;;;5043414;28;20437;-83
2024/03/16 01:41:40;;;;;;;0.60;0.60;;;10.50;99.90;;;;;;5043146;28;20433;-82
2024/03/16 01:44:10;;;;;;;0.60;0.50;;;10.50;99.90;;;;;;5043756;28;20508;-83
2024/03/16 01:46:39;;;;;;;0.50;0.40;;;10.50;99.90;;;;;;5027621;28;20434;-82
2024/03/16 01:49:06;;;;;;;2.73;1.10;;;10.50;99.90;;;;;;5043635;28;20500;-83
2024/03/16 01:51:33;;;;;;;0.50;0.50;;;10.50;99.90;;;;;;5043495;28;20433;-83
2024/03/16 01:54:01;;;;;;;4.87;1.13;;;10.50;99.90;;;;;;5042892;28;20440;-83
2024/03/16 01:56:28;;;;;;;2.53;0.80;;;10.50;99.90;;;;;;5043693;28;20440;-83
2024/03/16 01:58:55;;;;;;;0.50;0.40;;;10.50;99.90;;;;;;5048812;28;20461;-83
2024/03/16 02:01:25;;;;;;;0.50;0.40;;;10.50;99.90;;;;;;5042932;28;20581;-82
2024/03/16 02:03:53;;;;;;;0.60;0.60;;;10.50;99.90;;;;;;5043792;28;20477;-83
2024/03/16 02:06:20;;;;;;;0.60;0.57;;;10.50;99.90;;;;;;5043154;28;20433;-83
2024/03/16 02:08:47;;;;;;;0.60;0.50;;;10.50;99.90;;;;;;5042872;28;20462;-83
2024/03/16 02:11:14;;;;;;;0.60;0.50;;;10.50;99.90;;;;;;5044392;28;20425;-83
2024/03/16 02:13:41;;;;;;;1.80;1.67;;;10.50;99.90;;;;;;5043025;28;20449;-83
2024/03/16 02:16:08;;;;;;;2.25;1.52;;;10.50;99.90;;;;;;5042679;28;20429;-83
2024/03/16 02:18:36;;;;;;;10.03;0.90;;;10.50;99.90;;;;;;5042638;28;20210;-83
2024/03/16 02:21:04;;;;;;;1.17;1.13;;;10.50;99.90;;;;;;5043438;28;20460;-83
2024/03/16 02:23:32;;;;;;;2.43;1.60;;;10.50;99.90;;;;;;5043404;28;20520;-83
2024/03/16 02:25:59;;;;;;;0.63;0.63;;;10.50;99.90;;;;;;5044704;28;20473;-83
2024/03/16 02:28:25;;;;;;;0.50;0.50;;;10.40;99.90;;;;;;5045991;28;20461;-84
2024/03/16 02:30:53;;;;;;;0.50;0.40;;;10.40;99.90;;;;;;5040202;28;20445;-82
2024/03/16 02:33:20;;;;;;;0.70;0.67;;;10.40;99.90;;;;;;5037605;28;20717;-83
2024/03/16 02:35:46;;;;;;;0.50;0.50;;;10.40;99.90;;;;;;5036449;28;20441;-82
2024/03/16 02:38:13;;;;;;;0.60;0.60;;;10.40;99.90;;;;;;5036893;28;20449;-83
2024/03/16 02:40:42;;;;;;;0.50;0.40;;;10.40;99.90;;;;;;5037115;28;20444;-83
2024/03/16 02:43:09;;;;;;;0.50;0.40;;;10.40;99.90;;;;;;5020764;28;20520;-83
2024/03/16 02:45:36;;;;;;;0.50;0.50;;;10.40;99.90;;;;;;5037066;28;20522;-83
2024/03/16 02:48:05;;;;;;;1.20;0.70;;;10.40;99.90;;;;;;5041837;28;20477;-84
2024/03/16 02:50:32;;;;;;;2.00;0.77;;;10.40;99.90;;;;;;5048988;28;20195;-82
2024/03/16 02:52:59;;;;;;;0.60;0.60;;;10.40;99.90;;;;;;5048466;28;20520;-84
2024/03/16 02:55:26;;;;;;;7.93;3.77;;;10.40;99.90;;;;;;5048027;28;20520;-83
2024/03/16 02:57:53;;;;;;;2.40;1.10;;;10.40;99.90;;;;;;5049062;28;20457;-84
2024/03/16 03:00:23;;;;;;;0.60;0.60;;;10.40;99.90;;;;;;5048544;28;20512;-84
2024/03/16 03:02:49;;;;;;;0.60;0.60;;;10.40;99.90;;;;;;5048390;28;20461;-84
2024/03/16 03:05:20;;;;;;;1.07;0.73;;;10.40;99.90;;;;;;5048588;28;20461;-84
2024/03/16 03:07:48;;;;;;;2.00;1.33;;;10.40;99.90;;;;;;5048206;28;20457;-84
2024/03/16 03:10:14;;;;;;;1.03;0.87;;;10.40;99.90;;;;;;5048554;28;20442;-84
2024/03/16 03:12:42;;;;;;;0.60;0.60;;;10.30;99.90;;;;;;5047821;28;20438;-84
2024/03/16 03:15:11;;;;;;;0.90;0.50;;;10.20;99.90;;;;;;5049227;28;20468;-84
2024/03/16 03:17:38;;;;;;;0.70;0.63;;;10.10;99.90;;;;;;5048724;28;20468;-84
2024/03/16 03:20:08;;;;;;;0.73;0.60;;;10.10;99.90;;;;;;5048618;28;20495;-84
2024/03/16 03:22:35;;;;;;;1.90;1.13;;;10.00;99.90;;;;;;5032258;28;20805;-84
2024/03/16 03:25:03;;;;;;;1.53;1.17;;;9.90;99.90;;;;;;5048878;28;20500;-83
2024/03/16 03:27:30;;;;;;;3.53;2.83;;;9.90;99.90;;;;;;5048773;28;20480;-85
2024/03/16 03:29:58;;;;;;;0.80;0.80;;;9.90;99.90;;;;;;5048721;28;20438;-84
2024/03/16 03:32:25;;;;;;;1.20;1.20;;;9.80;99.90;;;;;;5048143;28;20198;-83
2024/03/16 03:34:51;;;;;;;1.35;0.80;;;9.90;99.90;;;;;;5048555;28;20202;-84
2024/03/16 03:37:20;;;;;;;3.55;1.77;;;9.90;99.90;;;;;;5048229;28;20228;-85
2024/03/16 03:39:51;;;;;;;1.80;0.90;;;9.80;99.90;;;;;;5047771;28;20265;-84
2024/03/16 03:42:19;;;;;;;5.05;2.17;;;9.90;99.90;;;;;;5048930;28;20569;-84
2024/03/16 03:45:00;;;;;;;2.10;1.37;;;9.80;99.90;;;;;;5048193;28;20217;-84
2024/03/16 03:47:40;;;;;;;1.27;1.20;;;9.90;99.90;;;;;;5048054;28;20453;-85
2024/03/16 03:50:09;;;;;;;0.93;0.93;;;9.90;99.90;;;;;;5048797;28;20438;-84
2024/03/16 03:52:37;;;;;;;1.37;1.27;;;9.90;99.90;;;;;;5046465;28;20446;-84
2024/03/16 03:55:08;;;;;;;0.63;0.60;;;9.90;99.90;;;;;;5046303;28;20439;-85
2024/03/16 03:57:35;;;;;;;1.33;1.20;;;9.90;99.90;;;;;;5046397;28;20452;-84
2024/03/16 04:00:03;;;;;;;4.97;1.87;;;9.90;99.90;;;;;;5046516;28;20820;-85
2024/03/16 04:02:30;;;;;;;0.50;0.40;;;9.90;99.90;;;;;;5046445;28;20471;-85
2024/03/16 04:04:59;;;;;;;5.57;1.27;;;9.90;99.90;;;;;;5045761;28;20211;-84
2024/03/16 04:07:27;;;;;;;0.50;0.40;;;9.90;99.90;;;;;;5045929;28;20500;-85
2024/03/16 04:09:54;;;;;;;0.50;0.40;;;9.90;99.90;;;;;;5046471;28;20199;-85
2024/03/16 04:12:20;;;;;;;1.27;1.17;;;9.90;99.90;;;;;;5046243;28;20199;-82
2024/03/16 04:14:47;;;;;;;2.37;2.17;;;9.90;99.90;;;;;;5046287;28;20437;-85
2024/03/16 04:17:14;;;;;;;0.50;0.50;;;9.90;99.90;;;;;;5045876;28;20461;-85
2024/03/16 04:19:46;;;;;;;0.80;0.60;;;9.80;99.90;;;;;;5045891;28;20434;-84
2024/03/16 04:22:16;;;;;;;1.73;1.63;;;9.80;99.90;;;;;;5046834;28;20430;-85
2024/03/16 04:24:43;;;;;;;1.63;1.33;;;9.80;99.90;;;;;;5046986;28;20465;-85
2024/03/16 04:27:09;;;;;;;8.40;1.53;;;9.90;99.90;;;;;;5046554;28;20972;-85
2024/03/16 04:29:36;;;;;;;1.27;1.27;;;9.80;99.90;;;;;;5046928;28;20440;-85
2024/03/16 04:32:03;;;;;;;0.95;0.85;;;9.80;99.90;;;;;;5029574;28;20444;-85
2024/03/16 04:34:31;;;;;;;4.55;1.58;;;9.80;99.90;;;;;;5046727;28;20195;-84
2024/03/16 04:36:57;;;;;;;4.32;2.60;;;9.80;99.90;;;;;;5046680;28;20234;-84
2024/03/16 04:39:25;;;;;;;3.73;2.77;;;9.80;99.90;;;;;;5047641;28;20198;-85
2024/03/16 04:41:52;;;;;;;1.10;0.80;;;9.80;99.90;;;;;;5054120;28;20517;-83
2024/03/16 04:44:19;;;;;;;6.73;3.30;;;9.80;99.90;;;;;;5053022;28;20444;-82
2024/03/16 04:46:46;;;;;;;6.13;2.05;;;9.80;99.90;;;;;;5052940;28;20466;-84
2024/03/16 04:49:12;;;;;;;1.75;1.63;;;9.80;99.90;;;;;;5053685;28;20266;-83
2024/03/16 04:51:39;;;;;;;5.55;2.35;;;9.80;99.90;;;;;;5037721;28;20199;-82
2024/03/16 04:54:06;;;;;;;0.60;0.60;;;9.80;99.90;;;;;;5037159;28;20198;-83
2024/03/16 04:56:33;;;;;;;2.93;1.90;;;9.80;99.90;;;;;;5036407;28;20436;-82
2024/03/16 04:59:00;;;;;;;1.52;1.10;;;9.90;99.90;;;;;;5035750;28;20536;-83
2024/03/16 05:01:27;;;;;;;1.45;1.33;;;9.90;99.90;;;;;;5035967;28;20582;-82
2024/03/16 05:03:53;;;;;;;2.00;1.47;;;9.90;99.90;;;;;;5035690;28;20572;-82
2024/03/16 05:06:20;;;;;;;0.50;0.50;;;9.90;99.90;;;;;;5035325;28;20473;-82
2024/03/16 05:08:47;;;;;;;0.85;0.85;;;9.90;99.90;;;;;;5035658;28;20972;-82
2024/03/16 05:11:14;;;;;;;0.60;0.60;;;9.90;99.90;;;;;;5035319;28;20190;-84
2024/03/16 05:13:41;;;;;;;0.50;0.50;;;9.90;99.90;;;;;;5034821;28;21040;-83
2024/03/16 05:16:08;;;;;;;6.37;3.57;;;9.90;99.90;;;;;;5034815;28;20441;-83
2024/03/16 05:18:35;;;;;;;0.40;0.40;;;9.90;99.90;;;;;;5034792;28;20457;-84
2024/03/16 05:21:02;;;;;;;0.70;0.60;;;9.90;99.90;;;;;;5034464;28;20944;-83
2024/03/16 05:23:29;;;;;;;0.50;0.50;;;9.90;99.90;;;;;;5034232;28;20441;-84
2024/03/16 05:25:56;;;;;;;0.50;0.40;;;9.90;99.90;;;;;;5034551;28;20485;-83
2024/03/16 05:28:23;;;;;;;0.70;0.67;;;9.90;99.90;;;;;;5034363;28;20454;-83
2024/03/16 05:30:53;;;;;;;2.55;2.22;;;9.90;99.90;;;;;;5023187;28;20442;-83
2024/03/16 05:33:20;;;;;;;7.30;3.37;;;9.90;99.90;;;;;;5042770;28;20199;-84
2024/03/16 05:35:47;;;;;;;0.60;0.60;;;9.90;99.90;;;;;;5039631;28;20430;-83
2024/03/16 05:38:15;;;;;;;9.77;3.53;;;9.70;99.90;;;;;;5038962;28;20219;-83
2024/03/16 05:40:43;;;;;;;1.45;1.35;;;9.70;99.90;;;;;;5039385;28;20195;-83
2024/03/16 05:43:10;;;;;;;0.50;0.40;;;9.60;99.90;;;;;;5022047;28;20198;-83
2024/03/16 05:45:37;;;;;;;1.35;0.73;;;9.60;99.90;;;;;;5038134;28;20211;-83
2024/03/16 05:48:05;;;;;;;4.95;2.35;;;9.50;99.90;;;;;;5037655;28;20226;-82
2024/03/16 05:50:31;;;;;;;8.15;3.78;;;9.50;99.90;;;;;;5038124;28;20203;-82
2024/03/16 05:52:58;;;;;;;0.97;0.97;;;9.40;99.90;;;;;;5037881;28;20203;-82
2024/03/16 05:55:25;;;;;;;4.00;3.25;;;9.30;99.90;;;;;;5038166;28;20430;-82
2024/03/16 05:57:53;;;;;;;3.28;3.00;;;9.30;99.90;;;;;;5038086;28;20218;-83
2024/03/16 06:00:22;;;;;;;3.95;2.50;;;9.10;99.90;;;;;;5039553;28;20203;-82
2024/03/16 06:02:49;;;;;;;1.58;1.10;;;9.10;99.90;;;;;;5040577;28;20205;-83
2024/03/16 06:05:16;;;;;;;1.40;0.77;;;9.00;99.90;;;;;;5038814;28;20219;-83
2024/03/16 06:07:44;;;;;;;4.50;3.75;;;9.00;99.90;;;;;;5037976;28;20218;-83
2024/03/16 06:10:11;;;;;;;1.73;1.30;;;8.90;99.90;;;;;;5037601;28;20201;-82
2024/03/16 06:12:37;;;;;;;0.50;0.40;;;8.90;99.90;;;;;;5039453;28;20203;-83
2024/03/16 06:15:06;;;;;;;3.35;3.05;;;8.90;99.90;;;;;;5041815;28;20561;-82
2024/03/16 06:17:34;;;;;;;3.85;1.55;;;8.90;99.90;;;;;;5041270;28;20246;-82
2024/03/16 06:20:03;;;;;;;3.05;1.58;;;8.90;99.90;;;;;;5040026;28;20222;-82
2024/03/16 06:22:30;;;;;;;1.35;1.17;;;8.90;99.90;;;;;;5039810;28;20210;-82
2024/03/16 06:24:57;;;;;;;0.75;0.75;;;8.90;99.90;;;;;;5039316;28;20234;-82
2024/03/16 06:27:25;;;;;;;11.27;9.60;;;8.80;99.90;;;;;;5040081;28;20211;-82
2024/03/16 06:29:52;;;;;;;3.85;3.42;;;8.80;99.90;;;;;;5039353;28;20219;-82
2024/03/16 06:32:21;;;;;;;1.35;1.02;;;8.80;99.90;;;;;;5038808;28;20669;-82
2024/03/16 06:34:48;;;;;;;0.80;0.80;;;8.80;99.90;;;;;;5038712;28;20206;-84
2024/03/16 06:37:15;;;;;;;0.93;0.93;;;8.80;99.90;;;;;;5038664;28;20219;-83
2024/03/16 06:39:42;;;;;;;2.35;2.15;;;8.80;99.90;;;;;;5038258;28;20202;-82
2024/03/16 06:42:10;;;;;;;1.63;1.10;;;8.80;99.90;;;;;;5037820;28;20199;-82
2024/03/16 06:44:37;;;;;;;2.85;1.83;;;8.80;99.90;;;;;;5021219;28;20294;-83
2024/03/16 06:47:04;;;;;;;2.15;0.80;;;8.80;99.90;;;;;;5037724;28;20268;-82
2024/03/16 06:49:31;;;;;;;3.22;2.92;;;8.80;99.90;;;;;;5037267;28;20279;-83
2024/03/16 06:51:58;;;;;;;2.00;1.90;;;8.80;99.90;;;;;;5037003;28;20207;-83
2024/03/16 06:54:25;;;;;;;1.55;1.45;;;8.80;99.90;;;;;;5037406;28;20566;-83
2024/03/16 06:56:52;;;;;;;1.90;0.97;;;8.80;99.90;;;;;;5045833;28;20198;-82
2024/03/16 06:59:19;;;;;;;0.95;0.95;;;8.70;99.90;;;;;;5044440;28;20438;-84
2024/03/16 07:01:46;;;;;;;0.50;0.40;;;8.70;99.90;;;;;;5044820;28;20542;-83
2024/03/16 07:04:15;;;;;;;0.85;0.85;;;8.80;99.90;;;;;;5044761;28;20662;-83
2024/03/16 07:06:43;;;;;;;2.05;1.35;;;8.90;99.90;;;;;;5046056;28;20211;-84
2024/03/16 07:09:12;;;;;;;2.63;1.23;;;8.90;99.90;;;;;;5030947;28;20215;-84
2024/03/16 07:11:39;;;;;;;0.80;0.68;;;8.90;99.90;;;;;;5048604;28;20200;-84
2024/03/16 07:14:06;;;;;;;1.17;1.17;;;8.80;99.90;;;;;;5048507;28;20194;-83
2024/03/16 07:16:34;;;;;;;0.70;0.70;;;8.80;99.90;;;;;;5048441;28;20211;-84
2024/03/16 07:19:01;;;;;;;0.60;0.60;;;8.70;99.90;;;;;;5049615;28;20218;-84
2024/03/16 07:21:29;;;;;;;0.65;0.65;;;8.70;99.90;;;;;;5048197;28;20203;-84
2024/03/16 07:23:57;;;;;;;0.50;0.40;;;8.70;99.90;;;;;;5047924;28;20191;-84
2024/03/16 07:26:24;;;;;;;0.70;0.70;;;8.70;99.90;;;;;;5047343;28;20211;-84
2024/03/16 07:28:51;;;;;;;0.95;0.95;;;8.70;99.90;;;;;;5048844;28;20306;-84
2024/03/16 07:31:18;;;;;;;0.50;0.40;;;8.70;99.90;;;;;;5048180;28;20218;-84
2024/03/16 07:33:45;;;;;;;1.55;0.85;;;8.70;99.90;;;;;;5048491;28;20199;-83
2024/03/16 07:36:12;;;;;;;0.85;0.85;;;8.70;99.90;;;;;;5048460;28;20187;-83
2024/03/16 07:38:39;;;;;;;1.63;1.48;;;8.80;99.90;;;;;;5048800;28;20223;-83
2024/03/16 07:41:06;;;;;;;0.50;0.40;;;8.80;99.90;;;;;;5047937;28;20213;-84
2024/03/16 07:43:34;;;;;;;0.50;0.40;;;8.80;99.90;;;;;;5049225;28;20203;-84
2024/03/16 07:46:01;;;;;;;0.50;0.50;;;8.90;99.90;;;;;;5049741;28;20704;-84
2024/03/16 07:48:29;;;;;;;0.50;0.40;;;8.90;99.90;;;;;;5048811;28;20866;-84
2024/03/16 07:51:00;;;;;;;0.88;0.70;;;8.90;99.90;;;;;;5048978;28;20195;-84
2024/03/16 07:53:28;;;;;;;0.50;0.40;;;8.80;99.90;;;;;;5048299;28;20275;-83
2024/03/16 07:55:58;;;;;;;0.57;0.40;;;8.80;99.90;;;;;;5045749;28;20198;-84
2024/03/16 07:58:25;;;;;;;1.30;0.70;;;8.90;99.90;;;;;;5045852;28;20242;-83
2024/03/16 08:00:52;;;;;;;0.50;0.40;;;9.00;99.90;;;;;;5044551;28;20199;-84
2024/03/16 08:03:18;;;;;;;0.52;0.52;;;9.10;99.90;;;;;;5045276;28;20199;-83
2024/03/16 08:05:45;;;;;;;0.50;0.40;;;9.10;99.90;;;;;;5043224;28;20206;-84
2024/03/16 08:08:15;;;;;;;0.50;0.40;;;9.10;99.90;;;;;;5043339;28;20219;-83
2024/03/16 08:10:42;;;;;;;0.60;0.60;;;9.10;99.90;;;;;;5043930;28;20709;-84
2024/03/16 08:13:09;;;;;;;0.50;0.50;;;9.10;99.90;;;;;;5045932;28;20454;-82
2024/03/16 08:15:39;;;;;;;0.82;0.57;;;9.10;99.90;;;;;;5044069;28;20198;-84
2024/03/16 08:18:07;;;;;;;0.50;0.40;;;9.10;99.90;;;;;;5047184;28;20215;-84
2024/03/16 08:20:34;;;;;;;0.60;0.52;;;9.10;99.90;;;;;;5044240;28;20282;-83
2024/03/16 08:23:03;;;;;;;1.05;0.63;;;9.00;99.90;;;;;;5045072;28;20222;-83
2024/03/16 08:25:32;;;;;;;0.50;0.40;;;8.90;99.90;;;;;;5046539;28;20238;-84
2024/03/16 08:27:59;;;;;;;0.50;0.40;;;8.80;99.90;;;;;;5044506;28;20306;-83
2024/03/16 08:30:27;;;;;;;0.60;0.60;;;8.70;99.90;;;;;;5043606;28;20206;-83
2024/03/16 08:32:54;;;;;;;18.20;0.90;;;8.80;99.90;;;;;;5044678;28;20199;-83
2024/03/16 08:35:22;;;;;;;0.50;0.40;;;8.60;99.90;;;;;;5044068;28;20218;-83
2024/03/16 08:37:49;;;;;;;0.50;0.40;;;8.60;99.90;;;;;;5044479;28;20550;-83
2024/03/16 08:40:16;;;;;;;0.50;0.40;;;8.70;99.90;;;;;;5042662;28;20191;-82
2024/03/16 08:42:43;;;;;;;0.50;0.40;;;8.90;99.90;;;;;;5043690;28;20670;-83
2024/03/16 08:45:10;;;;;;;0.68;0.65;;;9.00;99.90;;;;;;5043111;28;20191;-83
2024/03/16 08:47:37;;;;;;;0.50;0.40;;;9.20;99.90;;;;;;5028089;28;20226;-82
2024/03/16 08:50:05;;;;;;;5.35;3.45;;;9.50;99.90;;;;;;5044761;28;20195;-84
2024/03/16 08:52:33;;;;;;;1.80;1.70;;;9.70;99.90;;;;;;5044963;28;20210;-82
2024/03/16 08:55:00;;;;;;;1.23;1.13;;;9.90;99.90;;;;;;5026712;28;20187;-83
2024/03/16 08:57:27;;;;;;;0.50;0.40;;;10.00;99.90;;;;;;5042904;28;20450;-82
2024/03/16 08:59:54;;;;;;;0.50;0.40;;;9.90;99.90;;;;;;5026762;28;20732;-82
2024/03/16 09:02:21;;;;;;;0.50;0.40;;;9.90;99.90;;;;;;5041834;28;20199;-82
2024/03/16 09:04:51;;;;;;;0.50;0.50;;;10.00;99.90;;;;;;5044175;28;20204;-83
2024/03/16 09:07:20;;;;;;;0.50;0.40;;;10.20;99.90;;;;;;5041067;28;20829;-82
2024/03/16 09:09:47;;;;;;;0.70;0.50;;;10.40;99.90;;;;;;5041687;28;20195;-81
2024/03/16 09:12:16;;;;;;;0.50;0.40;;;10.40;99.90;;;;;;5041076;28;20223;-82
2024/03/16 09:14:43;;;;;;;0.50;0.40;;;10.50;99.90;;;;;;5040826;28;20435;-82
2024/03/16 09:17:10;;;;;;;0.50;0.40;;;10.50;99.90;;;;;;5039751;28;20477;-81
2024/03/16 09:19:39;;;;;;;0.97;0.60;;;10.60;99.90;;;;;;5041388;28;20480;-82
2024/03/16 09:22:06;;;;;;;0.50;0.40;;;10.80;99.90;;;;;;5040045;28;20495;-82
2024/03/16 09:24:34;;;;;;;3.87;3.47;;;11.10;99.90;;;;;;5040275;28;20527;-83
2024/03/16 09:27:02;;;;;;;0.50;0.40;;;11.30;99.90;;;;;;5039796;28;20940;-84
2024/03/16 09:29:29;;;;;;;0.50;0.50;;;11.30;99.90;;;;;;5039156;28;20430;-83
2024/03/16 09:31:56;;;;;;;0.63;0.60;;;10.90;99.90;;;;;;5039707;28;20448;-83
2024/03/16 09:34:23;;;;;;;13.07;0.70;;;10.80;99.90;;;;;;5038137;28;20438;-83
2024/03/16 09:36:53;;;;;;;0.50;0.40;;;10.40;99.90;;;;;;5037931;28;20820;-83
2024/03/16 09:39:26;;;;;;;0.50;0.50;;;10.10;99.90;;;;;;5040447;28;20437;-83
2024/03/16 09:41:57;;;;;;;0.50;0.40;;;9.90;99.90;;;;;;5039831;28;20201;-83
2024/03/16 09:44:23;;;;;;;0.50;0.40;;;9.80;99.90;;;;;;5037064;28;20199;-83
2024/03/16 09:46:52;;;;;;;0.50;0.40;;;9.90;99.90;;;;;;5038742;28;20473;-84
2024/03/16 09:49:19;;;;;;;0.50;0.40;;;10.10;99.90;;;;;;5038933;28;20202;-84
2024/03/16 09:51:47;;;;;;;0.50;0.40;;;10.30;99.90;;;;;;5038694;28;20207;-84
2024/03/16 09:54:14;;;;;;;0.50;0.40;;;10.40;99.90;;;;;;5040586;28;20868;-84
2024/03/16 09:56:41;;;;;;;0.50;0.40;;;10.40;99.90;;;;;;5048607;28;20669;-84
2024/03/16 09:59:10;;;;;;;0.50;0.40;;;10.40;99.90;;;;;;5049069;28;20464;-83
2024/03/16 10:01:37;;;;;;;0.50;0.40;;;10.20;99.90;;;;;;5048850;28;20438;-83
2024/03/16 10:04:05;;;;;;;0.50;0.40;;;10.10;99.90;;;;;;5049892;28;20444;-84
2024/03/16 10:06:32;;;;;;;0.50;0.40;;;10.20;99.90;;;;;;5050038;28;20474;-84
2024/03/16 10:09:12;;;;;;;0.50;0.50;;;10.20;99.90;;;;;;5059852;28;20454;-83
2024/03/16 10:11:40;;;;;;;0.50;0.40;;;10.30;99.90;;;;;;5059421;28;20435;-84
2024/03/16 10:14:09;;;;;;;0.50;0.40;;;10.40;99.90;;;;;;5059439;28;20425;-83
2024/03/16 10:16:40;;;;;;;0.50;0.40;;;10.50;99.90;;;;;;5057732;28;20445;-85
2024/03/16 10:19:07;;;;;;;0.50;0.50;;;10.40;99.90;;;;;;5052326;28;20479;-84
2024/03/16 10:21:34;;;;;;;0.50;0.40;;;10.30;99.90;;;;;;5052385;28;20448;-85
2024/03/16 10:24:01;;;;;;;0.50;0.40;;;10.30;99.90;;;;;;5034702;28;20274;-85
2024/03/16 10:26:30;;;;;;;0.70;0.60;;;10.10;99.90;;;;;;5050555;28;20203;-84
2024/03/16 10:28:58;;;;;;;1.57;1.13;;;10.00;99.90;;;;;;5051499;28;20458;-85
2024/03/16 10:31:26;;;;;;;0.50;0.40;;;9.80;99.90;;;;;;5051562;28;20876;-85
2024/03/16 10:33:54;;;;;;;0.50;0.40;;;9.80;99.90;;;;;;5043560;28;20819;-83
2024/03/16 10:36:20;;;;;;;0.50;0.40;;;9.70;99.90;;;;;;5040249;28;20434;-82
2024/03/16 10:38:50;;;;;;;0.85;0.77;;;9.60;99.90;;;;;;5040719;28;20460;-83
2024/03/16 10:41:17;;;;;;;0.50;0.40;;;9.50;99.90;;;;;;5039595;28;20199;-83
2024/03/16 10:43:44;;;;;;;0.50;0.50;;;9.50;99.90;;;;;;5039641;28;20286;-83
2024/03/16 10:46:15;;;;;;;0.50;0.40;;;9.50;99.90;;;;;;5039328;28;20210;-83
2024/03/16 10:48:42;;;;;;;0.50;0.40;;;9.50;99.90;;;;;;5038809;28;20608;-83
2024/03/16 10:51:09;;;;;;;0.60;0.50;;;9.50;99.90;;;;;;5021572;28;20199;-83
2024/03/16 10:53:39;;;;;;;0.50;0.40;;;9.50;99.90;;;;;;5037842;28;20441;-84
2024/03/16 10:56:08;;;;;;;0.50;0.40;;;9.50;99.90;;;;;;5037493;28;20444;-84
2024/03/16 10:58:35;;;;;;;0.50;0.40;;;9.60;99.90;;;;;;5037324;28;20215;-84
2024/03/16 11:01:02;;;;;;;0.50;0.40;;;9.70;99.90;;;;;;5048510;28;20195;-84
2024/03/16 11:03:31;;;;;;;0.50;0.40;;;10.00;99.90;;;;;;5051598;28;20441;-85
2024/03/16 11:06:02;;;;;;;0.50;0.40;;;10.10;99.90;;;;;;5050619;28;20441;-83
2024/03/16 11:08:37;;;;;;;0.50;0.40;;;10.20;99.90;;;;;;5049092;28;20480;-84
2024/03/16 11:11:08;;;;;;;0.50;0.40;;;10.20;99.90;;;;;;5049113;28;20445;-82
2024/03/16 11:13:35;;;;;;;0.50;0.40;;;10.40;99.90;;;;;;5049884;28;20460;-83
2024/03/16 11:16:06;;;;;;;0.50;0.40;;;10.30;99.90;;;;;;5048827;28;20434;-82
2024/03/16 11:18:43;;;;;;;0.50;0.40;;;10.10;99.90;;;;;;5049589;28;20457;-83
2024/03/16 11:21:16;;;;;;;0.80;0.70;;;10.00;99.90;;;;;;5048918;28;20445;-83
2024/03/16 11:23:47;;;;;;;1.98;1.13;;;9.90;99.90;;;;;;5048325;28;20500;-83
2024/03/16 11:26:39;;;;;;;0.50;0.40;;;9.90;99.90;;;;;;5047672;28;20241;-84
2024/03/16 11:29:15;;;;;;;0.50;0.40;;;9.80;99.90;;;;;;5064848;28;20454;-82
2024/03/16 11:31:42;;;;;;;0.50;0.40;;;9.70;99.90;;;;;;5047551;28;20519;-83
2024/03/16 11:34:11;;;;;;;0.50;0.40;;;9.70;99.90;;;;;;5031001;28;20867;-83
2024/03/16 11:36:41;;;;;;;0.50;0.40;;;9.60;99.90;;;;;;5048262;28;20743;-81
2024/03/16 11:39:11;;;;;;;0.50;0.40;;;9.70;99.90;;;;;;5030719;28;20219;-82
2024/03/16 11:41:46;;;;;;;0.70;0.70;;;9.70;99.90;;;;;;5050068;28;20547;-82
2024/03/16 11:44:12;;;;;;;0.50;0.40;;;9.90;99.90;;;;;;5048032;28;20463;-83
2024/03/16 11:46:42;;;;;;;0.50;0.40;;;10.10;99.90;;;;;;5047661;28;20437;-83
2024/03/16 11:49:14;;;;;;;0.70;0.70;;;10.30;99.90;;;;;;5047100;28;20886;-83
2024/03/16 11:51:42;;;;;;;0.50;0.50;;;10.50;99.90;;;;;;5047045;28;20449;-82
2024/03/16 11:54:08;;;;;;;0.50;0.47;;;10.80;99.90;;;;;;5045340;28;20499;-83
2024/03/16 11:56:36;;;;;;;0.63;0.50;;;10.90;99.90;;;;;;5045508;28;20457;-83
2024/03/16 11:59:08;;;;;;;2.83;2.73;;;10.90;99.90;;;;;;5045289;28;20802;-82
2024/03/16 12:01:34;;;;;;;0.50;0.40;;;10.90;99.90;;;;;;5046258;28;20438;-83
2024/03/16 12:04:03;;;;;;;0.50;0.40;;;11.10;99.90;;;;;;5043801;28;20955;-82
2024/03/16 12:06:29;;;;;;;0.50;0.40;;;11.00;99.90;;;;;;5028190;28;20445;-82
2024/03/16 12:08:56;;;;;;;1.17;1.17;;;10.90;99.90;;;;;;5042243;28;20489;-82
2024/03/16 12:11:23;;;;;;;0.50;0.40;;;10.90;99.90;;;;;;5044175;28;20434;-82
2024/03/16 12:13:51;;;;;;;0.50;0.40;;;11.00;99.90;;;;;;5043768;28;20529;-83
2024/03/16 12:16:17;;;;;;;0.50;0.50;;;11.00;99.90;;;;;;5026383;28;20441;-83
2024/03/16 12:18:44;;;;;;;0.50;0.40;;;11.10;99.90;;;;;;5043452;28;20537;-82
2024/03/16 12:21:12;;;;;;;0.50;0.40;;;11.20;99.90;;;;;;5044090;28;20432;-83
2024/03/16 12:23:39;;;;;;;0.80;0.70;;;11.20;99.90;;;;;;5043563;28;20441;-83
2024/03/16 12:26:09;;;;;;;0.50;0.40;;;11.30;99.90;;;;;;5043872;28;20439;-82
2024/03/16 12:28:36;;;;;;;0.50;0.40;;;11.40;99.90;;;;;;5042753;28;20580;-82
2024/03/16 12:31:02;;;;;;;0.50;0.40;;;11.60;99.90;;;;;;5042488;28;20430;-81
2024/03/16 12:33:29;;;;;;;0.50;0.40;;;11.70;99.90;;;;;;5026215;28;20441;-82
2024/03/16 12:35:56;;;;;;;0.60;0.43;;;12.10;99.90;;;;;;5043073;28;21023;-83
2024/03/16 12:38:23;;;;;;;0.50;0.40;;;12.50;99.90;;;;;;5041305;28;20544;-82
2024/03/16 12:40:49;;;;;;;0.50;0.40;;;13.00;99.90;;;;;;5040845;28;20940;-82
2024/03/16 12:43:16;;;;;;;0.50;0.40;;;13.30;99.90;;;;;;5040997;28;20452;-82
2024/03/16 12:45:42;;;;;;;0.60;0.40;;;13.40;99.90;;;;;;5043086;28;20430;-82
2024/03/16 12:48:09;;;;;;;1.60;1.50;;;13.40;99.90;;;;;;5045927;28;20472;-82
2024/03/16 12:50:35;;;;;;;0.50;0.40;;;13.10;99.90;;;;;;5027869;28;20442;-83
2024/03/16 12:53:02;;;;;;;0.50;0.40;;;13.00;99.90;;;;;;5045208;28;20449;-82
2024/03/16 12:55:28;;;;;;;0.50;0.40;;;12.90;99.90;;;;;;5044998;28;20422;-83